Wetterdaten: aktuell Dienstag, 13.11.2018 19:20
Datum Zeit Temp. A. Feuchte A. Luftdruck Regen Wind Taupunkt Windchill Windben
13.11.2018 19:20 7,2 C 86 % 1030,9 hPa 0,0 l/m 3,2 km/h (1 Bft) 5,0 C 7,2 C 6,4 km/h (2 Bft)
13.11.2018 19:15 7,3 C 87 % 1030,9 hPa 0,0 l/m 2,7 km/h (1 Bft) 5,3 C 7,3 C 4,8 km/h (1 Bft)
13.11.2018 19:10 7,4 C 87 % 1030,9 hPa 0,0 l/m 2,8 km/h (1 Bft) 5,4 C 7,4 C 4,8 km/h (1 Bft)
13.11.2018 19:05 7,3 C 87 % 1030,8 hPa 0,0 l/m 3,1 km/h (1 Bft) 5,3 C 7,3 C 4,8 km/h (1 Bft)
13.11.2018 19:00 7,3 C 86 % 1030,8 hPa 0,0 l/m 3,1 km/h (1 Bft) 5,1 C 7,3 C 4,8 km/h (1 Bft)
13.11.2018 18:55 7,6 C 86 % 1030,8 hPa 0,0 l/m 2,9 km/h (1 Bft) 5,4 C 7,6 C 4,8 km/h (1 Bft)
13.11.2018 18:50 7,7 C 86 % 1030,8 hPa 0,0 l/m 3,5 km/h (1 Bft) 5,5 C 7,7 C 6,4 km/h (2 Bft)
13.11.2018 18:45 7,9 C 85 % 1030,8 hPa 0,0 l/m 2,3 km/h (1 Bft) 5,5 C 7,9 C 4,8 km/h (1 Bft)
13.11.2018 18:40 8,1 C 86 % 1030,8 hPa 0,0 l/m 2,1 km/h (1 Bft) 5,9 C 8,1 C 4,8 km/h (1 Bft)
13.11.2018 18:35 8,0 C 86 % 1030,7 hPa 0,0 l/m 1,7 km/h (1 Bft) 5,8 C 8,0 C 4,8 km/h (1 Bft)
13.11.2018 18:30 8,0 C 86 % 1030,6 hPa 0,0 l/m 2,4 km/h (1 Bft) 5,8 C 8,0 C 8,0 km/h (2 Bft)
13.11.2018 18:25 7,9 C 87 % 1030,6 hPa 0,0 l/m 4,0 km/h (1 Bft) 5,9 C 7,9 C 8,0 km/h (2 Bft)
13.11.2018 18:20 7,9 C 86 % 1030,6 hPa 0,0 l/m 4,7 km/h (1 Bft) 5,7 C 7,9 C 8,0 km/h (2 Bft)
13.11.2018 18:15 8,1 C 85 % 1030,5 hPa 0,0 l/m 3,5 km/h (1 Bft) 5,7 C 8,1 C 9,7 km/h (2 Bft)
13.11.2018 18:10 8,3 C 84 % 1030,4 hPa 0,0 l/m 2,5 km/h (1 Bft) 5,8 C 8,3 C 4,8 km/h (1 Bft)
13.11.2018 18:05 8,5 C 84 % 1030,4 hPa 0,0 l/m 2,8 km/h (1 Bft) 6,0 C 8,5 C 6,4 km/h (2 Bft)
13.11.2018 18:00 8,7 C 84 % 1030,4 hPa 0,0 l/m 3,0 km/h (1 Bft) 6,2 C 8,7 C 6,4 km/h (2 Bft)
13.11.2018 17:55 8,7 C 84 % 1030,4 hPa 0,0 l/m 1,9 km/h (1 Bft) 6,2 C 8,7 C 3,2 km/h (1 Bft)
13.11.2018 17:50 8,8 C 84 % 1030,3 hPa 0,0 l/m 2,3 km/h (1 Bft) 6,2 C 8,8 C 4,8 km/h (1 Bft)
13.11.2018 17:45 8,8 C 84 % 1030,2 hPa 0,0 l/m 2,9 km/h (1 Bft) 6,2 C 8,8 C 6,4 km/h (2 Bft)
13.11.2018 17:40 8,9 C 83 % 1030,1 hPa 0,0 l/m 3,2 km/h (1 Bft) 6,2 C 8,9 C 4,8 km/h (1 Bft)
_ Min-Zeit 19:20 14:30 03:20 - 11:15 19:20 19:20 11:15
Minimum _ 7,2 C 77 % 1021,6 hPa - 0,0 km/h (0 Bft) 5,0 C 7,2 C 0,0 km/h (0 Bft)
_ Max-Zeit 14:40 11:15 19:10 07:10 13:00 12:35 14:35 13:40
Maximum _ 12,4 C 90 % 1030,9 hPa 0,2 l/m 14,4 km/h
W-SW (3 Bft)
9,5 C 12,3 C 32,2 km/h
SW (5 Bft)
Durchschnitt _ 9,2 C 85 % 1025,6 hPa #0,4 l/m 4,9 km/h (1 Bft) 6,8 C 8,7 C 9,9 km/h (2 Bft)